Time;durP1;ratioP1;P1;durP2;ratioP2;P2;SDS_P1;SDS_P2;PMS_P1;PMS_P2;Temp;Humidity;BMP_temperature;BMP_pressure;BME280_temperature;BME280_humidity;BME280_pressure;Samples;Min_cycle;Max_cycle;Signal;HPM_P1;HPM_P2
2021/12/07 00:00:23;;;;;;;21.70;10.20;;;0.60;70.10;;;;;;4143763;28;20026;-77
2021/12/07 00:02:24;;;;;;;24.75;10.45;;;0.60;70.00;;;;;;4142855;28;20099;-77
2021/12/07 00:04:24;;;;;;;24.30;10.40;;;0.60;70.00;;;;;;4140358;28;20510;-78
2021/12/07 00:06:25;;;;;;;25.67;10.80;;;0.60;70.10;;;;;;4127860;28;20045;-77
2021/12/07 00:08:27;;;;;;;26.33;11.90;;;0.60;70.80;;;;;;4144008;28;20105;-77
2021/12/07 00:10:28;;;;;;;24.05;10.65;;;0.70;70.40;;;;;;4126665;28;20022;-78
2021/12/07 00:12:34;;;;;;;24.10;11.00;;;0.60;70.40;;;;;;4129755;28;20120;-78
2021/12/07 00:14:38;;;;;;;23.38;10.50;;;0.60;70.50;;;;;;4139048;28;20115;-77
2021/12/07 00:16:43;;;;;;;22.67;9.73;;;0.60;70.60;;;;;;4127442;28;20026;-77
2021/12/07 00:18:44;;;;;;;24.27;11.10;;;0.60;70.70;;;;;;4124768;28;20030;-77
2021/12/07 00:20:44;;;;;;;23.95;11.25;;;0.60;70.80;;;;;;4128848;28;20040;-78
2021/12/07 00:22:47;;;;;;;25.17;11.23;;;0.60;70.80;;;;;;4141441;28;20037;-78
2021/12/07 00:24:47;;;;;;;21.95;10.85;;;0.60;70.90;;;;;;4127567;28;20049;-78
2021/12/07 00:26:48;;;;;;;28.15;12.07;;;0.60;70.80;;;;;;4115109;28;20413;-78
2021/12/07 00:28:50;;;;;;;24.35;11.18;;;0.60;70.80;;;;;;4128346;28;20026;-78
2021/12/07 00:30:51;;;;;;;28.33;11.82;;;0.60;71.60;;;;;;4111037;28;20029;-78
2021/12/07 00:33:09;;;;;;;29.73;13.00;;;0.60;70.90;;;;;;4109283;28;20564;-78
2021/12/07 00:37:21;;;;;;;30.67;11.60;;;0.60;71.00;;;;;;4132155;28;20026;-78
2021/12/07 00:39:22;;;;;;;25.65;11.85;;;0.60;71.10;;;;;;4143869;28;20117;-78
2021/12/07 00:41:26;;;;;;;30.45;13.50;;;0.50;71.10;;;;;;4116834;28;20081;-78
2021/12/07 00:43:28;;;;;;;33.35;13.30;;;0.60;71.30;;;;;;4118229;28;20122;-78
2021/12/07 00:45:32;;;;;;;29.15;13.38;;;0.50;71.40;;;;;;4127822;28;20077;-78
2021/12/07 00:47:32;;;;;;;27.70;12.57;;;0.50;71.50;;;;;;4128272;28;20113;-78
2021/12/07 00:49:33;;;;;;;30.40;13.25;;;0.40;71.60;;;;;;4113209;28;20416;-78
2021/12/07 00:51:34;;;;;;;30.90;13.60;;;0.50;71.90;;;;;;4110822;28;20062;-78
2021/12/07 00:53:34;;;;;;;29.30;13.75;;;0.40;71.90;;;;;;4110294;28;20449;-78
2021/12/07 00:55:43;;;;;;;27.33;13.43;;;0.40;72.00;;;;;;4127189;28;20065;-78
2021/12/07 00:57:44;;;;;;;28.65;13.93;;;0.40;72.00;;;;;;4131052;28;20034;-78
2021/12/07 00:59:44;;;;;;;29.77;13.45;;;0.40;72.20;;;;;;4111484;28;20130;-78
2021/12/07 01:01:45;;;;;;;31.88;14.05;;;0.30;72.30;;;;;;4131221;28;20038;-78
2021/12/07 01:03:46;;;;;;;32.00;14.40;;;0.30;72.40;;;;;;4115179;28;20039;-78
2021/12/07 01:05:51;;;;;;;36.03;15.55;;;0.30;72.50;;;;;;4126106;28;20034;-78
2021/12/07 01:26:21;;;;;;;30.55;14.18;;;0.20;73.10;;;;;;4132696;28;20532;-77
2021/12/07 01:30:38;;;;;;;37.13;15.48;;;0.10;73.20;;;;;;4126026;28;20114;-77
2021/12/07 01:35:43;;;;;;;32.65;14.77;;;0.10;73.20;;;;;;4100642;28;20081;-78
2021/12/07 01:44:29;;;;;;;32.38;14.95;;;0.00;73.20;;;;;;4141877;28;20048;-77
2021/12/07 01:46:58;;;;;;;36.40;16.00;;;0.00;73.30;;;;;;4131208;28;20042;-77
2021/12/07 01:52:10;;;;;;;32.70;14.55;;;0.00;73.50;;;;;;4114412;28;20097;-78
2021/12/07 02:00:26;;;;;;;36.80;14.10;;;-0.10;73.70;;;;;;4130982;28;20019;-78
2021/12/07 02:02:28;;;;;;;29.30;13.95;;;-0.10;73.90;;;;;;4118518;28;20042;-78
2021/12/07 02:04:28;;;;;;;32.50;14.35;;;-0.10;73.80;;;;;;4148490;28;20109;-80
2021/12/07 02:06:29;;;;;;;38.70;16.27;;;-0.10;73.90;;;;;;4132509;28;20030;-80
2021/12/07 02:08:30;;;;;;;34.97;15.30;;;-0.20;73.90;;;;;;4131258;23;21296;-60
2021/12/07 02:10:32;;;;;;;32.40;15.13;;;-0.20;74.60;;;;;;4146916;28;20467;-61
2021/12/07 02:12:42;;;;;;;32.70;15.07;;;-0.20;74.00;;;;;;4140806;28;20050;-60
2021/12/07 02:14:42;;;;;;;31.42;13.50;;;-0.20;74.00;;;;;;4133820;28;20039;-60
2021/12/07 02:16:47;;;;;;;35.72;14.65;;;-0.20;74.10;;;;;;4140270;28;20378;-60
2021/12/07 02:18:48;;;;;;;35.60;14.90;;;-0.20;74.10;;;;;;4139488;28;20030;-60
2021/12/07 02:20:49;;;;;;;39.65;14.93;;;-0.20;74.10;;;;;;4144084;28;20115;-59
2021/12/07 02:22:50;;;;;;;33.70;14.88;;;-0.20;74.20;;;;;;4137688;28;20121;-60
2021/12/07 02:24:51;;;;;;;30.33;13.90;;;-0.30;74.20;;;;;;4126709;28;20519;-60
2021/12/07 02:26:51;;;;;;;37.05;15.65;;;-0.20;74.30;;;;;;4142413;28;20092;-60
2021/12/07 02:28:52;;;;;;;34.33;15.15;;;-0.20;74.30;;;;;;4140135;28;20033;-60
2021/12/07 02:30:53;;;;;;;36.58;15.55;;;-0.20;74.40;;;;;;4140704;28;20040;-60
2021/12/07 02:32:54;;;;;;;34.50;15.45;;;-0.20;75.30;;;;;;4137313;28;20117;-60
2021/12/07 02:34:59;;;;;;;34.78;14.85;;;-0.20;74.80;;;;;;4109138;28;20030;-59
2021/12/07 02:37:00;;;;;;;31.90;14.27;;;-0.20;74.80;;;;;;4141402;28;20125;-60
2021/12/07 02:39:02;;;;;;;37.08;15.35;;;-0.20;74.90;;;;;;4138933;28;20026;-60
2021/12/07 02:41:03;;;;;;;31.80;14.27;;;-0.20;75.00;;;;;;4141139;28;20506;-59
2021/12/07 02:43:04;;;;;;;34.83;15.40;;;-0.20;75.00;;;;;;4105248;28;20502;-59
2021/12/07 02:45:05;;;;;;;36.25;16.88;;;-0.20;75.10;;;;;;4136106;28;20037;-60
2021/12/07 02:47:06;;;;;;;36.45;15.85;;;-0.20;75.10;;;;;;4136783;28;20034;-60
2021/12/07 02:49:07;;;;;;;35.63;15.32;;;-0.20;75.30;;;;;;4123713;28;20080;-60
2021/12/07 02:51:08;;;;;;;36.72;15.75;;;-0.20;75.20;;;;;;4140776;28;20080;-60
2021/12/07 02:53:08;;;;;;;42.00;16.20;;;-0.10;75.30;;;;;;4138173;28;20022;-60
2021/12/07 02:55:09;;;;;;;33.08;15.80;;;-0.10;75.20;;;;;;4139639;28;20033;-60
2021/12/07 02:57:11;;;;;;;36.70;16.33;;;-0.10;75.20;;;;;;4141546;28;20052;-60
2021/12/07 02:59:12;;;;;;;35.75;16.60;;;-0.10;75.20;;;;;;4142522;28;20026;-59
2021/12/07 03:01:19;;;;;;;35.53;16.88;;;-0.10;75.20;;;;;;4138351;28;20033;-60
2021/12/07 03:03:20;;;;;;;36.58;16.48;;;-0.10;75.10;;;;;;4139329;28;20244;-59
2021/12/07 03:10:11;;;;;;;35.15;15.73;;;0.00;75.10;;;;;;4141010;28;20481;-61
2021/12/07 03:26:16;;;;;;;39.08;17.13;;;0.10;75.00;;;;;;4139928;28;20029;-61
2021/12/07 03:28:16;;;;;;;39.13;17.70;;;0.10;74.90;;;;;;4139898;28;20045;-60
2021/12/07 03:30:17;;;;;;;32.75;16.20;;;0.10;75.00;;;;;;4142996;28;20540;-61
2021/12/07 03:32:18;;;;;;;35.63;16.05;;;0.10;75.10;;;;;;4175733;23;20056;-83
2021/12/07 03:34:19;;;;;;;38.83;17.83;;;0.10;75.10;;;;;;4153854;28;20029;-83
2021/12/07 03:36:19;;;;;;;38.00;17.02;;;0.10;75.20;;;;;;4188221;28;20025;-82
2021/12/07 03:38:20;;;;;;;37.10;15.63;;;0.10;75.20;;;;;;4182291;28;20040;-82
2021/12/07 03:40:21;;;;;;;36.33;16.70;;;0.10;75.30;;;;;;4171420;28;20021;-82
2021/12/07 03:42:21;;;;;;;40.75;17.42;;;0.10;75.20;;;;;;4161107;28;20396;-82
2021/12/07 03:44:22;;;;;;;38.63;17.02;;;0.10;75.20;;;;;;4170017;28;20017;-83
2021/12/07 03:46:23;;;;;;;38.47;17.27;;;0.10;75.20;;;;;;4155114;28;20036;-82
2021/12/07 03:48:23;;;;;;;39.63;18.08;;;0.20;75.30;;;;;;4156689;28;20120;-83
2021/12/07 03:50:24;;;;;;;36.85;17.80;;;0.20;75.20;;;;;;4149021;28;20034;-83
2021/12/07 03:52:25;;;;;;;38.85;17.00;;;0.20;75.20;;;;;;4116803;28;20029;-82
2021/12/07 03:54:25;;;;;;;40.17;18.05;;;0.20;75.30;;;;;;4132515;28;20041;-82
2021/12/07 03:56:26;;;;;;;38.72;17.63;;;0.20;75.20;;;;;;4154689;28;20034;-82
2021/12/07 03:58:26;;;;;;;39.75;17.70;;;0.20;75.30;;;;;;4156295;28;20030;-81
2021/12/07 04:00:28;;;;;;;42.90;18.88;;;0.20;75.90;;;;;;4134817;28;20476;-81
2021/12/07 04:02:28;;;;;;;36.50;17.02;;;0.20;75.20;;;;;;4152439;28;20480;-81
2021/12/07 04:04:29;;;;;;;36.47;16.98;;;0.20;75.20;;;;;;4164516;28;20026;-82
2021/12/07 04:06:30;;;;;;;38.83;16.98;;;0.20;75.20;;;;;;4169324;28;20108;-82
2021/12/07 04:08:31;;;;;;;40.70;17.08;;;0.20;75.10;;;;;;4149707;28;20108;-82
2021/12/07 04:10:31;;;;;;;36.35;17.67;;;0.30;75.20;;;;;;4169259;28;20052;-82
2021/12/07 04:12:33;;;;;;;36.85;17.88;;;0.20;75.10;;;;;;4155207;28;20041;-82
2021/12/07 04:14:33;;;;;;;37.58;18.10;;;0.20;75.00;;;;;;4135193;28;20061;-82
2021/12/07 04:16:34;;;;;;;36.70;17.67;;;0.20;75.10;;;;;;4151957;28;20029;-83
2021/12/07 04:18:35;;;;;;;38.78;17.55;;;0.20;75.80;;;;;;4150039;28;20026;-81
2021/12/07 04:20:36;;;;;;;38.88;16.27;;;0.20;75.00;;;;;;4116990;28;20098;-82
2021/12/07 04:22:36;;;;;;;41.22;18.17;;;0.20;75.00;;;;;;4139058;28;20033;-83
2021/12/07 04:24:37;;;;;;;44.88;18.05;;;0.30;75.00;;;;;;4151728;28;20102;-82
2021/12/07 04:26:38;;;;;;;42.75;18.88;;;0.20;74.90;;;;;;4152250;28;20030;-83
2021/12/07 04:28:40;;;;;;;35.85;16.75;;;0.30;74.90;;;;;;4150803;28;20121;-82
2021/12/07 04:30:42;;;;;;;37.33;17.63;;;0.20;74.90;;;;;;4134955;28;20030;-83
2021/12/07 04:32:43;;;;;;;39.53;17.02;;;0.30;74.90;;;;;;4133601;28;20050;-83
2021/12/07 04:34:43;;;;;;;36.42;16.77;;;0.20;74.80;;;;;;4164912;28;20045;-82
2021/12/07 04:36:44;;;;;;;41.90;17.83;;;0.20;74.80;;;;;;4118503;28;20053;-82
2021/12/07 04:38:44;;;;;;;39.08;18.15;;;0.20;74.80;;;;;;4165203;28;20033;-82
2021/12/07 04:40:45;;;;;;;38.30;17.60;;;0.30;74.90;;;;;;4169504;28;20033;-83
2021/12/07 04:42:46;;;;;;;40.22;17.77;;;0.20;75.50;;;;;;4153904;28;20045;-83
2021/12/07 04:44:53;;;;;;;44.78;18.42;;;0.20;74.80;;;;;;4166299;28;20078;-83
2021/12/07 04:47:17;;;;;;;41.47;17.73;;;0.20;74.80;;;;;;4150550;28;20419;-83
2021/12/07 04:58:23;;;;;;;36.80;17.60;;;0.20;74.80;;;;;;4168149;28;20052;-81
2021/12/07 05:00:26;;;;;;;43.53;19.45;;;0.10;74.80;;;;;;4148573;28;20026;-85
2021/12/07 05:02:26;;;;;;;44.30;19.38;;;0.10;74.80;;;;;;4133638;28;20031;-82
2021/12/07 05:04:30;;;;;;;42.20;18.00;;;0.10;74.80;;;;;;4165366;28;20530;-82
2021/12/07 05:06:33;;;;;;;41.78;18.63;;;0.10;74.90;;;;;;4136178;28;20022;-80
2021/12/07 05:08:46;;;;;;;39.42;18.40;;;0.10;75.00;;;;;;4161992;28;20041;-80
2021/12/07 05:15:24;;;;;;;41.63;18.95;;;0.10;75.10;;;;;;4165069;28;20022;-81
2021/12/07 05:24:24;;;;;;;42.65;17.98;;;0.00;75.30;;;;;;4165947;28;20575;-81
2021/12/07 05:38:02;;;;;;;43.75;17.85;;;-0.10;75.60;;;;;;4162657;28;20034;-81
2021/12/07 05:40:08;;;;;;;40.35;17.85;;;0.00;75.70;;;;;;4163600;28;20087;-81
2021/12/07 05:42:08;;;;;;;50.40;17.13;;;-0.10;75.60;;;;;;4151426;28;20099;-81
2021/12/07 05:44:09;;;;;;;37.67;17.55;;;-0.10;75.60;;;;;;4167017;28;20550;-81
2021/12/07 05:46:10;;;;;;;42.22;18.25;;;0.00;75.70;;;;;;4163354;28;20038;-81
2021/12/07 05:48:10;;;;;;;42.40;17.95;;;0.00;75.70;;;;;;4167176;28;20065;-80
2021/12/07 05:50:13;;;;;;;41.35;19.02;;;0.00;75.90;;;;;;4150480;28;20038;-82
2021/12/07 05:52:13;;;;;;;39.95;18.58;;;0.00;76.00;;;;;;4153118;28;20487;-82
2021/12/07 05:54:14;;;;;;;206.93;106.28;;;0.00;76.30;;;;;;4150240;28;20029;-82
2021/12/07 05:56:15;;;;;;;50.40;19.63;;;0.00;76.50;;;;;;4168780;28;20028;-82
2021/12/07 05:58:15;;;;;;;43.38;18.67;;;0.00;76.60;;;;;;4167759;28;20048;-81
2021/12/07 06:00:26;;;;;;;48.05;20.23;;;0.10;76.80;;;;;;4154157;28;20026;-82
2021/12/07 06:02:27;;;;;;;45.97;19.95;;;0.00;76.70;;;;;;4170742;28;20025;-82
2021/12/07 06:04:30;;;;;;;45.75;20.10;;;0.10;76.90;;;;;;4179376;28;20097;-82
2021/12/07 06:06:31;;;;;;;42.28;19.23;;;0.00;76.80;;;;;;4139541;28;20050;-82
2021/12/07 06:08:32;;;;;;;46.58;19.63;;;0.00;76.90;;;;;;4161593;28;20044;-82
2021/12/07 06:10:33;;;;;;;45.20;19.58;;;0.10;76.90;;;;;;4159210;28;20034;-82
2021/12/07 06:12:33;;;;;;;45.88;20.50;;;0.20;77.00;;;;;;4164672;28;20033;-82
2021/12/07 06:14:41;;;;;;;47.03;20.67;;;0.10;77.00;;;;;;4174682;28;20037;-82
2021/12/07 06:16:42;;;;;;;45.47;19.58;;;0.10;77.00;;;;;;4169887;28;20095;-82
2021/12/07 06:18:43;;;;;;;42.42;20.00;;;0.10;77.00;;;;;;4169387;28;20622;-82
2021/12/07 06:20:44;;;;;;;44.50;20.42;;;0.20;77.10;;;;;;4171494;28;20290;-82
2021/12/07 06:22:45;;;;;;;43.38;20.33;;;0.10;77.00;;;;;;4168981;28;20089;-82
2021/12/07 06:24:46;;;;;;;52.00;20.70;;;0.20;77.10;;;;;;4156553;28;20404;-82
2021/12/07 06:26:46;;;;;;;47.42;19.27;;;0.20;77.20;;;;;;4162513;28;20497;-82
2021/12/07 06:28:47;;;;;;;51.40;20.25;;;0.20;77.10;;;;;;4169311;28;20054;-82
2021/12/07 06:30:48;;;;;;;41.60;19.55;;;0.20;77.20;;;;;;4169706;28;20025;-82
2021/12/07 06:32:48;;;;;;;42.42;19.45;;;0.20;77.20;;;;;;4133287;28;20030;-82
2021/12/07 06:34:49;;;;;;;50.17;20.35;;;0.30;77.20;;;;;;4167990;28;20037;-82
2021/12/07 06:36:50;;;;;;;45.55;21.23;;;0.20;77.10;;;;;;4181066;28;20553;-82
2021/12/07 06:38:51;;;;;;;48.30;20.80;;;0.30;77.20;;;;;;4136097;28;20038;-82
2021/12/07 06:40:51;;;;;;;47.03;20.33;;;0.30;77.20;;;;;;4143748;28;20121;-82
2021/12/07 06:42:54;;;;;;;48.85;21.08;;;0.20;77.10;;;;;;4170137;28;20128;-81
2021/12/07 06:44:55;;;;;;;48.65;22.67;;;0.20;77.00;;;;;;4170339;28;20032;-82
2021/12/07 06:46:55;;;;;;;49.45;21.42;;;0.20;77.10;;;;;;4170163;28;20065;-82
2021/12/07 06:48:56;;;;;;;46.85;20.98;;;0.30;77.10;;;;;;4168632;28;20100;-82
2021/12/07 06:50:57;;;;;;;45.17;20.33;;;0.20;77.00;;;;;;4175468;28;20029;-82
2021/12/07 06:52:57;;;;;;;51.05;21.23;;;0.20;76.90;;;;;;4153925;28;20026;-82
2021/12/07 06:54:58;;;;;;;49.90;22.02;;;0.30;77.10;;;;;;4125135;28;20055;-82
2021/12/07 06:56:59;;;;;;;46.13;20.83;;;0.30;77.00;;;;;;4161254;28;20056;-82
2021/12/07 06:59:00;;;;;;;50.88;21.25;;;0.30;77.10;;;;;;4142062;28;20022;-82
2021/12/07 07:01:01;;;;;;;47.47;21.35;;;0.40;77.10;;;;;;4174651;28;20026;-82
2021/12/07 07:03:02;;;;;;;52.08;22.58;;;0.30;77.10;;;;;;4156522;28;20145;-82
2021/12/07 07:05:04;;;;;;;47.03;18.85;;;0.30;77.00;;;;;;4154087;28;20147;-82
2021/12/07 07:07:04;;;;;;;45.60;21.25;;;0.30;77.00;;;;;;4153468;28;20056;-82
2021/12/07 07:09:05;;;;;;;50.42;21.98;;;0.30;76.90;;;;;;4157537;28;20030;-82
2021/12/07 07:11:06;;;;;;;44.50;21.20;;;0.30;76.90;;;;;;4142013;28;20029;-82
2021/12/07 07:13:06;;;;;;;46.75;20.77;;;0.30;76.90;;;;;;4169675;28;20406;-82
2021/12/07 07:15:07;;;;;;;47.92;21.45;;;0.30;76.90;;;;;;4158429;28;20092;-82
2021/12/07 07:17:08;;;;;;;45.53;20.52;;;0.30;76.90;;;;;;4160336;28;20037;-82
2021/12/07 07:19:09;;;;;;;47.22;20.55;;;0.30;76.90;;;;;;4170600;28;20033;-82
2021/12/07 07:21:09;;;;;;;49.17;21.23;;;0.30;76.90;;;;;;4170335;28;20033;-82
2021/12/07 07:23:10;;;;;;;49.65;22.52;;;0.40;76.80;;;;;;4156728;28;20029;-82
2021/12/07 07:25:11;;;;;;;53.42;21.95;;;0.40;76.80;;;;;;4160382;28;20059;-82
2021/12/07 07:27:11;;;;;;;49.35;20.80;;;0.40;76.70;;;;;;4138287;28;20038;-82
2021/12/07 07:29:12;;;;;;;49.00;21.60;;;0.30;77.30;;;;;;4137294;28;20026;-82
2021/12/07 07:31:13;;;;;;;48.53;22.13;;;0.30;76.60;;;;;;4169558;28;20079;-82
2021/12/07 07:33:13;;;;;;;52.85;21.45;;;0.40;76.40;;;;;;4166615;28;20075;-82
2021/12/07 07:35:15;;;;;;;46.15;21.10;;;0.30;76.40;;;;;;4169011;28;20111;-82
2021/12/07 07:37:16;;;;;;;49.25;21.67;;;0.40;76.40;;;;;;4167084;28;20030;-82
2021/12/07 07:39:16;;;;;;;46.90;21.60;;;0.40;76.30;;;;;;4155469;28;20080;-82
2021/12/07 07:41:17;;;;;;;55.63;23.08;;;0.40;76.40;;;;;;4140417;28;20113;-82
2021/12/07 07:43:18;;;;;;;50.22;20.92;;;0.40;76.20;;;;;;4168871;28;20391;-82
2021/12/07 07:45:18;;;;;;;53.97;22.75;;;0.50;76.30;;;;;;4170299;28;20030;-82
2021/12/07 07:47:19;;;;;;;49.60;22.10;;;0.40;76.20;;;;;;4151973;28;20029;-82
2021/12/07 07:49:19;;;;;;;51.97;22.75;;;0.30;76.20;;;;;;4158121;28;20491;-82
2021/12/07 07:51:20;;;;;;;47.78;21.50;;;0.50;76.20;;;;;;4166370;28;20034;-82
2021/12/07 07:53:21;;;;;;;54.17;23.63;;;0.40;76.10;;;;;;4165442;28;20041;-82
2021/12/07 07:55:22;;;;;;;46.80;21.23;;;0.40;76.00;;;;;;4173431;28;20099;-82
2021/12/07 07:57:23;;;;;;;48.03;21.52;;;0.40;76.00;;;;;;4168922;28;20032;-82
2021/12/07 07:59:23;;;;;;;51.85;22.27;;;0.40;76.00;;;;;;4136092;28;20034;-82
2021/12/07 08:01:29;;;;;;;45.78;21.35;;;0.40;76.00;;;;;;4166030;28;20118;-82
2021/12/07 08:03:29;;;;;;;53.83;22.55;;;0.40;76.00;;;;;;4167113;28;20041;-82
2021/12/07 08:05:30;;;;;;;51.00;23.25;;;0.40;76.00;;;;;;4166881;28;20052;-82
2021/12/07 08:07:31;;;;;;;51.67;22.02;;;0.40;76.00;;;;;;4157247;28;20377;-82
2021/12/07 08:09:32;;;;;;;51.10;22.35;;;0.40;76.10;;;;;;4155564;22;20061;-65
2021/12/07 08:11:32;;;;;;;46.85;21.55;;;0.40;76.00;;;;;;4143392;28;20026;-64
2021/12/07 08:13:33;;;;;;;50.30;22.27;;;0.40;76.00;;;;;;4143575;28;20061;-64
2021/12/07 08:15:38;;;;;;;45.75;20.02;;;0.40;76.00;;;;;;4142543;28;20037;-64
2021/12/07 08:17:39;;;;;;;57.10;22.30;;;0.40;76.00;;;;;;4139765;28;20037;-64
2021/12/07 08:19:40;;;;;;;52.92;22.80;;;0.30;75.90;;;;;;4141197;28;20045;-64
2021/12/07 08:21:40;;;;;;;52.08;21.02;;;0.30;75.90;;;;;;4142369;28;20528;-65
2021/12/07 08:23:41;;;;;;;49.40;21.52;;;0.30;75.90;;;;;;4142151;28;20033;-65
2021/12/07 08:25:44;;;;;;;46.55;19.75;;;0.40;75.90;;;;;;4140791;28;20108;-65
2021/12/07 08:27:44;;;;;;;47.17;21.40;;;0.40;76.00;;;;;;4136578;28;20136;-65
2021/12/07 08:29:45;;;;;;;46.25;20.40;;;0.30;76.00;;;;;;4139245;28;20124;-64
2021/12/07 08:31:45;;;;;;;52.28;21.98;;;0.40;76.00;;;;;;4141031;28;20038;-65
2021/12/07 08:33:46;;;;;;;51.03;22.95;;;0.40;76.00;;;;;;4141031;28;20460;-65
2021/12/07 08:35:47;;;;;;;49.10;22.42;;;0.40;75.90;;;;;;4141924;28;20033;-65
2021/12/07 08:37:48;;;;;;;46.78;21.45;;;0.40;75.80;;;;;;4138332;28;20770;-64
2021/12/07 08:39:48;;;;;;;43.10;20.80;;;0.40;75.80;;;;;;4141659;28;20085;-64
2021/12/07 08:41:49;;;;;;;45.33;20.58;;;0.50;75.80;;;;;;4143743;28;20026;-65
2021/12/07 08:43:50;;;;;;;49.05;20.50;;;0.50;75.80;;;;;;4142248;28;20036;-65
2021/12/07 08:45:50;;;;;;;47.60;19.73;;;0.50;75.70;;;;;;4142340;28;20521;-65
2021/12/07 08:47:51;;;;;;;51.20;21.33;;;0.50;75.70;;;;;;4141226;28;20619;-65
2021/12/07 08:49:54;;;;;;;40.20;18.77;;;0.50;75.70;;;;;;4142327;28;20022;-64
2021/12/07 08:51:54;;;;;;;46.38;21.27;;;0.50;75.60;;;;;;4141187;28;20030;-65
2021/12/07 08:54:02;;;;;;;48.17;21.23;;;0.50;75.60;;;;;;4140591;28;20045;-65
2021/12/07 09:00:41;;;;;;;49.53;22.13;;;0.50;75.20;;;;;;4141038;28;20022;-65
2021/12/07 09:02:42;;;;;;;47.17;20.67;;;0.50;75.20;;;;;;4140518;28;20524;-65
2021/12/07 09:04:43;;;;;;;50.05;21.33;;;0.60;75.30;;;;;;4142294;28;20638;-65
2021/12/07 09:06:47;;;;;;;48.95;20.88;;;0.50;75.20;;;;;;4139966;28;20056;-65
2021/12/07 09:08:48;;;;;;;48.85;21.00;;;0.60;75.20;;;;;;4139091;28;20025;-64
2021/12/07 09:10:49;;;;;;;48.38;20.02;;;0.50;75.20;;;;;;4140892;28;20756;-65
2021/12/07 09:12:50;;;;;;;44.15;20.15;;;0.60;75.30;;;;;;4144620;28;20504;-65
2021/12/07 09:14:53;;;;;;;47.10;20.63;;;0.60;75.20;;;;;;4142353;28;20109;-65
2021/12/07 09:16:53;;;;;;;44.83;19.77;;;0.60;75.10;;;;;;4145374;28;20034;-64
2021/12/07 09:18:54;;;;;;;45.30;20.30;;;0.60;75.00;;;;;;4146277;28;20033;-65
2021/12/07 09:20:54;;;;;;;42.72;19.50;;;0.60;74.90;;;;;;4149100;28;20362;-64
2021/12/07 09:22:55;;;;;;;45.20;18.95;;;0.60;74.90;;;;;;4145451;28;20026;-65
2021/12/07 09:24:56;;;;;;;44.00;20.15;;;0.60;74.90;;;;;;4144001;28;20810;-65
2021/12/07 09:26:57;;;;;;;42.08;18.30;;;0.70;75.00;;;;;;4144231;28;20026;-65
2021/12/07 09:28:57;;;;;;;41.17;19.10;;;0.70;75.00;;;;;;4145135;28;20033;-65
2021/12/07 09:30:58;;;;;;;45.15;20.48;;;0.70;74.70;;;;;;4144104;28;20064;-65
2021/12/07 09:32:59;;;;;;;38.72;17.90;;;0.70;74.50;;;;;;4142453;28;20076;-65
2021/12/07 09:35:01;;;;;;;42.30;18.13;;;0.70;74.50;;;;;;4145380;28;20076;-65
2021/12/07 09:37:02;;;;;;;44.88;18.38;;;0.70;74.30;;;;;;4144382;28;20404;-65
2021/12/07 09:39:04;;;;;;;39.92;17.95;;;0.80;74.30;;;;;;4143879;28;20041;-65
2021/12/07 09:41:06;;;;;;;43.15;18.98;;;0.80;74.20;;;;;;4143582;28;20453;-65
2021/12/07 09:43:07;;;;;;;40.28;17.58;;;0.80;74.00;;;;;;4142729;28;20096;-65
2021/12/07 09:45:08;;;;;;;39.75;18.08;;;0.80;73.70;;;;;;4143994;28;20577;-65
2021/12/07 09:47:09;;;;;;;33.97;16.08;;;0.80;73.60;;;;;;4144391;28;20026;-64
2021/12/07 09:49:10;;;;;;;37.28;17.08;;;0.80;73.70;;;;;;4144739;28;21023;-65
2021/12/07 09:51:11;;;;;;;36.50;16.75;;;0.90;73.70;;;;;;4142569;28;20034;-65
2021/12/07 09:53:13;;;;;;;38.22;16.60;;;0.90;73.60;;;;;;4143097;28;20072;-65
2021/12/07 09:55:14;;;;;;;36.45;17.02;;;0.90;73.60;;;;;;4142511;28;20424;-65
2021/12/07 09:57:15;;;;;;;38.95;16.98;;;0.90;73.60;;;;;;4148524;28;20128;-65
2021/12/07 09:59:15;;;;;;;35.50;17.17;;;0.90;73.40;;;;;;4143374;28;20095;-65
2021/12/07 10:01:16;;;;;;;36.35;16.48;;;1.00;73.50;;;;;;4145699;28;20026;-66
2021/12/07 10:03:18;;;;;;;39.33;16.25;;;1.00;73.30;;;;;;4144377;28;20490;-65
2021/12/07 10:05:19;;;;;;;34.17;16.10;;;1.00;73.20;;;;;;4142841;28;20022;-65
2021/12/07 10:07:20;;;;;;;35.75;15.98;;;1.10;72.80;;;;;;4142301;28;20057;-65
2021/12/07 10:09:21;;;;;;;33.83;15.73;;;1.10;72.70;;;;;;4143461;28;20030;-65
2021/12/07 10:11:21;;;;;;;36.45;16.80;;;1.10;72.70;;;;;;4128495;28;20038;-65
2021/12/07 10:13:24;;;;;;;34.35;15.93;;;1.20;72.90;;;;;;4141845;28;20103;-66
2021/12/07 10:15:24;;;;;;;33.38;15.57;;;1.20;72.70;;;;;;4145238;28;20030;-66
2021/12/07 10:17:25;;;;;;;38.97;16.05;;;1.20;72.60;;;;;;4143720;28;20072;-65
2021/12/07 10:19:30;;;;;;;36.03;15.75;;;1.20;72.50;;;;;;4143944;28;20052;-66
2021/12/07 10:21:38;;;;;;;32.15;15.68;;;1.20;72.20;;;;;;4147507;28;20052;-65
2021/12/07 10:23:41;;;;;;;34.97;15.25;;;1.20;72.30;;;;;;4124941;28;20033;-64
2021/12/07 10:25:52;;;;;;;33.85;16.10;;;1.30;72.20;;;;;;4144782;28;20029;-65
2021/12/07 10:27:53;;;;;;;42.42;17.08;;;1.30;72.10;;;;;;4142744;28;20037;-65
2021/12/07 10:29:53;;;;;;;33.20;15.00;;;1.30;72.00;;;;;;4126513;28;20533;-65
2021/12/07 10:31:56;;;;;;;34.33;15.10;;;1.30;72.10;;;;;;4144913;28;20512;-65
2021/12/07 10:34:00;;;;;;;33.53;14.88;;;1.40;72.30;;;;;;4142977;28;20482;-65
2021/12/07 10:36:13;;;;;;;38.42;16.05;;;1.40;72.10;;;;;;4144100;28;20025;-65
2021/12/07 10:38:17;;;;;;;32.22;15.35;;;1.40;71.90;;;;;;4143884;28;20025;-65
2021/12/07 10:40:17;;;;;;;33.30;14.75;;;1.50;71.60;;;;;;4126454;28;20045;-65
2021/12/07 10:42:30;;;;;;;36.92;15.88;;;1.50;71.10;;;;;;4143317;28;20494;-65
2021/12/07 10:44:32;;;;;;;36.00;16.80;;;1.50;71.10;;;;;;4146110;28;20049;-65
2021/12/07 10:46:53;;;;;;;39.03;17.05;;;1.50;71.20;;;;;;4126497;28;20038;-65
2021/12/07 10:49:18;;;;;;;30.45;13.98;;;1.50;72.00;;;;;;4143583;28;20029;-65
2021/12/07 10:51:19;;;;;;;36.85;15.85;;;1.50;71.40;;;;;;4143073;28;20030;-65
2021/12/07 10:53:19;;;;;;;34.28;14.70;;;1.50;71.50;;;;;;4143579;28;20419;-65
2021/12/07 10:55:22;;;;;;;38.90;15.80;;;1.60;71.50;;;;;;4144204;28;20109;-65
2021/12/07 10:57:32;;;;;;;35.78;15.45;;;1.70;71.40;;;;;;4122302;28;20462;-65
2021/12/07 10:59:33;;;;;;;41.95;16.95;;;1.70;71.40;;;;;;4145883;28;20564;-65
2021/12/07 11:01:38;;;;;;;33.75;15.43;;;1.70;71.40;;;;;;4129245;28;20060;-65
2021/12/07 11:03:38;;;;;;;32.15;14.60;;;1.70;71.20;;;;;;4142500;28;20069;-65
2021/12/07 11:05:54;;;;;;;35.17;15.68;;;1.80;71.00;;;;;;4145030;28;20043;-64
2021/12/07 11:07:56;;;;;;;33.83;15.07;;;1.90;70.90;;;;;;4142264;28;20970;-65
2021/12/07 11:10:10;;;;;;;31.75;15.43;;;1.90;70.50;;;;;;4140904;28;20153;-65
2021/12/07 11:12:14;;;;;;;32.22;15.65;;;1.90;70.20;;;;;;4142257;28;20391;-65
2021/12/07 11:14:15;;;;;;;33.92;15.52;;;1.90;70.00;;;;;;4145199;28;20652;-64
2021/12/07 11:16:17;;;;;;;35.13;15.73;;;1.90;70.20;;;;;;4144352;28;20033;-66
2021/12/07 11:18:23;;;;;;;35.97;15.70;;;1.90;70.20;;;;;;4142787;28;20105;-64
2021/12/07 11:20:24;;;;;;;32.00;15.32;;;1.90;70.30;;;;;;4141687;28;20952;-65
2021/12/07 11:22:27;;;;;;;33.88;14.73;;;1.90;70.30;;;;;;4139563;28;20034;-65
2021/12/07 11:24:38;;;;;;;34.15;15.05;;;2.00;70.10;;;;;;4142228;28;20029;-65
2021/12/07 11:31:49;;;;;;;38.97;15.20;;;2.00;69.80;;;;;;4144131;28;20232;-65
2021/12/07 11:33:52;;;;;;;33.33;14.93;;;2.00;69.90;;;;;;4138650;28;20060;-65
2021/12/07 11:35:54;;;;;;;35.42;15.43;;;2.00;69.90;;;;;;4141996;28;20022;-65
2021/12/07 11:37:55;;;;;;;34.55;15.57;;;2.10;70.10;;;;;;4141175;28;20176;-65
2021/12/07 11:39:57;;;;;;;36.15;16.02;;;2.00;69.90;;;;;;4142412;28;20113;-65
2021/12/07 11:42:13;;;;;;;33.58;15.15;;;2.00;69.90;;;;;;4142812;28;20064;-65
2021/12/07 11:44:14;;;;;;;32.65;15.45;;;2.00;69.90;;;;;;4145150;28;20574;-65
2021/12/07 11:46:22;;;;;;;34.88;14.40;;;2.00;69.90;;;;;;4141087;28;20034;-65
2021/12/07 11:48:22;;;;;;;40.80;17.88;;;1.90;70.00;;;;;;4141810;28;20033;-65
2021/12/07 11:50:40;;;;;;;32.95;15.05;;;1.90;70.10;;;;;;4142156;28;20036;-65
2021/12/07 11:52:41;;;;;;;36.47;15.63;;;2.00;70.50;;;;;;4142588;28;20087;-65
2021/12/07 11:54:42;;;;;;;38.20;16.45;;;1.90;70.50;;;;;;4141786;28;20038;-65
2021/12/07 11:56:43;;;;;;;34.88;16.20;;;1.90;70.70;;;;;;4141220;28;20037;-65
2021/12/07 11:58:44;;;;;;;39.83;16.67;;;1.90;70.90;;;;;;4140874;28;20121;-65
2021/12/07 12:00:49;;;;;;;33.15;15.57;;;1.90;71.00;;;;;;4142257;28;20083;-64
2021/12/07 12:02:50;;;;;;;34.28;16.00;;;1.90;70.90;;;;;;4144862;28;20117;-65
2021/12/07 12:04:50;;;;;;;34.47;16.08;;;1.90;71.10;;;;;;4142381;28;20057;-65
2021/12/07 12:06:54;;;;;;;37.20;16.00;;;1.90;71.20;;;;;;4143462;28;20085;-65
2021/12/07 12:08:55;;;;;;;36.97;16.85;;;1.90;71.10;;;;;;4141274;28;20490;-65